createdAt,value
2023-03-06T00:00:50.168Z,94.01
2023-03-06T00:05:55.630Z,93.87
2023-03-06T00:10:58.524Z,93.77
2023-03-06T00:16:01.412Z,94.11
2023-03-06T00:21:07.897Z,93.75
2023-03-06T00:26:10.842Z,94.33
2023-03-06T00:31:16.014Z,94.29
2023-03-06T00:36:18.659Z,94.08
2023-03-06T00:41:21.580Z,94.14
2023-03-06T00:46:24.266Z,94.35
2023-03-06T00:51:26.992Z,94.16
2023-03-06T00:56:30.242Z,94.21
2023-03-06T01:01:33.770Z,93.85
2023-03-06T01:06:36.524Z,93.80
2023-03-06T01:11:39.271Z,93.97
2023-03-06T01:16:41.984Z,94.25
2023-03-06T01:21:45.225Z,93.92
2023-03-06T01:26:47.972Z,92.77
2023-03-06T01:31:50.683Z,94.04
2023-03-06T01:36:53.271Z,93.79
2023-03-06T01:41:55.881Z,93.61
2023-03-06T01:46:58.619Z,94.10
2023-03-06T01:52:12.323Z,94.13
2023-03-06T01:57:23.432Z,93.38
2023-03-06T02:02:26.683Z,93.38
2023-03-06T02:07:30.010Z,94.06
2023-03-06T02:12:33.003Z,93.40
2023-03-06T02:17:35.999Z,93.55
2023-03-06T02:22:59.924Z,94.24
2023-03-06T02:28:02.963Z,93.88
2023-03-06T02:33:06.513Z,93.89
2023-03-06T02:38:12.205Z,93.93
2023-03-06T02:43:18.983Z,94.53
2023-03-06T02:48:21.976Z,93.88
2023-03-06T02:53:24.837Z,95.20
2023-03-06T02:58:27.570Z,96.41
2023-03-06T03:03:30.293Z,97.51
2023-03-06T03:08:34.888Z,97.33
2023-03-06T03:13:39.113Z,97.25
2023-03-06T03:18:48.043Z,97.29
2023-03-06T03:23:53.960Z,96.97
2023-03-06T03:28:56.774Z,96.43
2023-03-06T03:34:00.388Z,96.60
2023-03-06T03:39:05.595Z,96.71
2023-03-06T03:44:09.225Z,96.26
2023-03-06T03:49:12.296Z,95.81
2023-03-06T03:54:15.334Z,96.01
2023-03-06T03:59:21.299Z,96.62
2023-03-06T04:04:35.362Z,97.76
2023-03-06T04:09:38.930Z,98.02
2023-03-06T04:14:42.355Z,98.14
2023-03-06T04:19:45.233Z,97.70
2023-03-06T04:24:50.147Z,97.80
2023-03-06T04:29:56.515Z,97.27
2023-03-06T04:34:59.657Z,96.88
2023-03-06T04:40:09.513Z,96.93
2023-03-06T04:45:12.312Z,95.73
2023-03-06T04:50:16.126Z,94.99
2023-03-06T04:55:19.885Z,96.75
2023-03-06T05:00:24.751Z,97.16
2023-03-06T05:05:28.129Z,97.04
2023-03-06T05:10:30.783Z,96.77
2023-03-06T05:15:34.117Z,95.63
2023-03-06T05:20:36.793Z,94.95
2023-03-06T05:25:40.626Z,94.09
2023-03-06T05:30:43.302Z,92.72
2023-03-06T05:35:47.549Z,91.38
2023-03-06T05:40:50.263Z,91.09
2023-03-06T05:46:04.250Z,93.51
2023-03-06T05:51:06.961Z,92.79
2023-03-06T05:56:10.075Z,93.05
2023-03-06T06:01:15.659Z,94.40
2023-03-06T06:06:18.491Z,93.07
2023-03-06T06:11:21.245Z,90.73
2023-03-06T06:16:23.849Z,92.32
2023-03-06T06:21:26.449Z,90.82
2023-03-06T06:26:29.256Z,89.87
2023-03-06T06:31:31.973Z,89.01
2023-03-06T06:36:34.808Z,87.97
2023-03-06T06:41:57.028Z,86.28
2023-03-06T06:52:24.813Z,84.93
2023-03-06T06:57:27.522Z,84.09
2023-03-06T07:02:30.190Z,83.58
2023-03-06T07:07:37.764Z,84.02
2023-03-06T07:12:40.464Z,81.83
2023-03-06T07:17:43.409Z,80.68
2023-03-06T07:22:51.385Z,80.86
2023-03-06T07:27:55.124Z,81.57
2023-03-06T07:32:58.990Z,82.82
2023-03-06T07:38:01.946Z,84.13
2023-03-06T07:43:18.408Z,83.74
2023-03-06T07:48:28.165Z,81.89
2023-03-06T07:53:30.935Z,81.97
2023-03-06T07:58:33.680Z,80.40
2023-03-06T08:03:36.527Z,81.58
2023-03-06T08:08:40.839Z,81.65
2023-03-06T08:13:43.713Z,81.90
2023-03-06T08:18:46.712Z,81.55
2023-03-06T08:23:50.042Z,81.35
2023-03-06T08:28:54.051Z,81.72
2023-03-06T08:33:58.674Z,80.98
2023-03-06T08:39:01.715Z,76.80
2023-03-06T08:44:05.258Z,80.68
2023-03-06T08:49:07.957Z,78.83
2023-03-06T08:54:13.005Z,78.70
2023-03-06T08:59:15.652Z,78.37
2023-03-06T09:04:18.442Z,78.39
2023-03-06T09:09:21.089Z,78.54
2023-03-06T09:14:23.735Z,79.30
2023-03-06T09:19:26.744Z,79.63
2023-03-06T09:24:29.379Z,78.76
2023-03-06T09:29:31.933Z,79.50
2023-03-06T09:34:34.566Z,80.92
2023-03-06T09:39:37.396Z,76.70
2023-03-06T09:44:41.605Z,77.51
2023-03-06T09:49:56.113Z,79.51
2023-03-06T09:54:58.805Z,82.64
2023-03-06T10:00:19.230Z,80.76
2023-03-06T10:05:26.331Z,82.50
2023-03-06T10:10:53.176Z,82.73
2023-03-06T10:16:06.634Z,84.42
2023-03-06T10:21:33.034Z,86.66
2023-03-06T10:26:45.708Z,86.97
2023-03-06T10:31:58.993Z,88.01
2023-03-06T10:37:15.366Z,88.74
2023-03-06T10:42:17.948Z,88.71
2023-03-06T10:47:35.735Z,88.89
2023-03-06T10:52:38.475Z,88.42
2023-03-06T10:57:41.094Z,87.66
2023-03-06T11:02:43.668Z,86.44
2023-03-06T11:07:57.816Z,86.23
2023-03-06T11:13:02.848Z,82.83
2023-03-06T11:18:08.130Z,83.52
2023-03-06T11:23:32.385Z,83.14
2023-03-06T11:28:40.994Z,81.90
2023-03-06T11:34:12.183Z,83.17
2023-03-06T11:39:41.862Z,75.13
2023-03-06T11:44:53.448Z,72.67
2023-03-06T11:50:02.514Z,77.81
2023-03-06T11:55:09.130Z,81.46
2023-03-06T12:00:22.566Z,79.14
2023-03-06T12:05:37.289Z,81.69
2023-03-06T12:10:51.742Z,78.84
2023-03-06T12:16:19.629Z,80.84
2023-03-06T12:22:14.544Z,80.03
2023-03-06T12:27:38.804Z,80.32
2023-03-06T12:33:07.376Z,82.45
2023-03-06T12:38:31.659Z,83.19
2023-03-06T12:44:05.012Z,84.26
2023-03-06T12:49:23.008Z,86.62
2023-03-06T12:54:37.365Z,85.07
2023-03-06T12:59:48.643Z,82.83
2023-03-06T13:05:00.357Z,83.07
2023-03-06T13:10:25.732Z,85.01
2023-03-06T13:15:37.338Z,83.01
2023-03-06T13:20:46.304Z,84.33
2023-03-06T13:25:50.459Z,82.62
2023-03-06T13:30:53.556Z,81.70
2023-03-06T13:35:58.638Z,77.17
2023-03-06T13:41:33.085Z,78.72
2023-03-06T13:46:37.953Z,77.73
2023-03-06T13:51:47.500Z,78.95
2023-03-06T13:56:59.211Z,78.04
2023-03-06T14:02:41.286Z,77.67
2023-03-06T14:07:49.526Z,76.79
2023-03-06T14:12:52.029Z,78.76
2023-03-06T14:18:00.714Z,81.47
2023-03-06T14:23:21.313Z,81.87
2023-03-06T14:28:29.896Z,79.77
2023-03-06T14:33:43.330Z,79.91
2023-03-06T14:38:53.971Z,77.91
2023-03-06T14:44:24.223Z,77.39
2023-03-06T14:49:27.363Z,81.14
2023-03-06T14:54:37.140Z,81.31
2023-03-06T14:59:44.797Z,81.40
2023-03-06T15:04:51.352Z,84.86
2023-03-06T15:09:55.206Z,87.28
2023-03-06T15:15:10.495Z,88.89
2023-03-06T15:20:44.081Z,90.08
2023-03-06T15:25:59.014Z,90.34
2023-03-06T15:31:20.224Z,91.72
2023-03-06T15:36:29.776Z,92.64
2023-03-06T15:41:37.578Z,92.91
2023-03-06T15:46:41.397Z,93.33
2023-03-06T15:51:44.032Z,93.90
2023-03-06T15:56:49.174Z,95.16
2023-03-06T16:01:53.023Z,94.80
2023-03-06T16:06:55.677Z,94.75
2023-03-06T16:11:58.812Z,95.33
2023-03-06T16:17:01.420Z,94.77
2023-03-06T16:22:04.550Z,94.75
2023-03-06T16:27:07.210Z,94.74
2023-03-06T16:32:11.373Z,94.08
2023-03-06T16:37:14.399Z,93.69
2023-03-06T16:42:17.811Z,93.90
2023-03-06T16:47:20.357Z,93.27
2023-03-06T16:52:23.298Z,93.14
2023-03-06T16:57:27.309Z,92.68
2023-03-06T17:02:30.067Z,91.81
2023-03-06T17:07:34.245Z,91.54
2023-03-06T17:12:36.968Z,91.41
2023-03-06T17:17:39.495Z,91.47
2023-03-06T17:22:46.692Z,91.26
2023-03-06T17:27:49.453Z,91.16
2023-03-06T17:32:52.067Z,91.46
2023-03-06T17:37:54.739Z,91.35
2023-03-06T17:42:57.392Z,92.28
2023-03-06T17:48:00.073Z,92.53
2023-03-06T17:53:02.688Z,92.76
2023-03-06T17:58:05.182Z,91.94
2023-03-06T18:03:09.501Z,92.23
2023-03-06T18:08:12.126Z,93.05
2023-03-06T18:13:15.368Z,93.31
2023-03-06T18:18:21.155Z,93.75
2023-03-06T18:23:24.198Z,94.35
2023-03-06T18:28:26.766Z,94.25
2023-03-06T18:33:29.284Z,94.14
2023-03-06T18:38:32.023Z,94.39
2023-03-06T18:43:35.989Z,94.91
2023-03-06T18:48:38.516Z,94.82
2023-03-06T18:53:41.720Z,94.94
2023-03-06T18:58:44.980Z,95.26
2023-03-06T19:03:47.631Z,94.57
2023-03-06T19:08:50.333Z,94.85
2023-03-06T19:13:53.381Z,94.83
2023-03-06T19:18:56.349Z,94.75
2023-03-06T19:23:59.587Z,94.63
2023-03-06T19:29:02.118Z,94.73
2023-03-06T19:34:04.637Z,94.47
2023-03-06T19:39:07.979Z,94.37
2023-03-06T19:44:12.330Z,93.39
2023-03-06T19:49:18.103Z,92.94
2023-03-06T19:54:23.584Z,93.59
2023-03-06T19:59:26.154Z,93.06
2023-03-06T20:04:32.653Z,93.33
2023-03-06T20:09:36.036Z,91.82
2023-03-06T20:14:38.757Z,93.05
2023-03-06T20:19:41.555Z,91.58
2023-03-06T20:24:44.119Z,92.46
2023-03-06T20:29:47.030Z,90.41
2023-03-06T20:34:49.588Z,91.25
2023-03-06T20:39:52.808Z,90.80
2023-03-06T20:44:55.376Z,91.02
2023-03-06T20:49:57.987Z,91.90
2023-03-06T20:55:00.647Z,91.62
2023-03-06T21:00:05.189Z,91.21
2023-03-06T21:05:08.317Z,91.52
2023-03-06T21:10:11.709Z,91.27
2023-03-06T21:15:15.456Z,89.77
2023-03-06T21:20:17.897Z,89.38
2023-03-06T21:25:20.617Z,88.50
2023-03-06T21:30:23.127Z,88.11
2023-03-06T21:35:25.670Z,88.57
2023-03-06T21:40:28.208Z,88.38
2023-03-06T21:45:31.693Z,86.71
2023-03-06T21:50:35.309Z,87.55
2023-03-06T21:55:41.054Z,88.36
2023-03-06T22:00:43.724Z,88.40
2023-03-06T22:05:46.292Z,88.53
2023-03-06T22:10:49.146Z,89.41
2023-03-06T22:15:53.610Z,89.91
2023-03-06T22:20:56.213Z,90.11
2023-03-06T22:26:05.308Z,90.50
2023-03-06T22:31:23.947Z,89.48
2023-03-06T22:36:28.251Z,88.52
2023-03-06T22:41:31.324Z,88.74
2023-03-06T22:46:33.978Z,88.06
2023-03-06T22:51:37.786Z,88.03
2023-03-06T22:56:40.306Z,89.25
2023-03-06T23:01:43.360Z,89.75
2023-03-06T23:06:47.056Z,89.20
2023-03-06T23:11:50.008Z,88.06
2023-03-06T23:17:11.134Z,89.02
2023-03-06T23:22:32.509Z,86.47
2023-03-06T23:27:53.767Z,86.49
2023-03-06T23:32:56.493Z,88.67
2023-03-06T23:38:00.095Z,86.41
2023-03-06T23:43:03.313Z,87.61
2023-03-06T23:48:08.085Z,87.75
2023-03-06T23:53:10.650Z,87.40
2023-03-06T23:58:14.518Z,88.45
